createdAt,value
2022-07-25T00:01:45.822Z,100097.28
2022-07-25T00:04:14.406Z,100094.19
2022-07-25T00:06:42.739Z,100090.66
2022-07-25T00:09:09.811Z,100086.44
2022-07-25T00:11:36.520Z,100089.66
2022-07-25T00:14:04.403Z,100093.34
2022-07-25T00:16:31.658Z,100071.81
2022-07-25T00:18:58.365Z,100089.91
2022-07-25T00:21:24.984Z,100086.81
2022-07-25T00:23:51.576Z,100085.44
2022-07-25T00:26:18.254Z,100065.41
2022-07-25T00:28:44.932Z,100052.53
2022-07-25T00:31:11.521Z,100069.13
2022-07-25T00:33:40.151Z,100060.22
2022-07-25T00:36:08.557Z,100068.41
2022-07-25T00:38:35.246Z,100057.63
2022-07-25T00:41:03.772Z,100067.13
2022-07-25T00:43:30.423Z,100065.03
2022-07-25T00:45:58.880Z,100059.38
2022-07-25T00:48:27.470Z,100058.28
2022-07-25T00:50:54.512Z,100031.47
2022-07-25T00:53:21.931Z,100042.16
2022-07-25T00:55:48.619Z,100045.94
2022-07-25T00:58:15.185Z,100045.19
2022-07-25T01:00:41.971Z,100027.78
2022-07-25T01:03:08.667Z,100039.81
2022-07-25T01:05:35.309Z,100038.00
2022-07-25T01:08:02.891Z,100042.72
2022-07-25T01:10:32.298Z,100041.31
2022-07-25T01:12:59.043Z,100009.97
2022-07-25T01:15:25.910Z,100025.38
2022-07-25T01:17:52.845Z,100025.81
2022-07-25T01:20:20.774Z,100020.44
2022-07-25T01:22:49.113Z,100023.75
2022-07-25T01:25:16.645Z,100022.06
2022-07-25T01:27:44.085Z,100022.06
2022-07-25T01:30:15.350Z,100030.97
2022-07-25T01:32:43.330Z,100018.09
2022-07-25T01:35:10.685Z,100020.25
2022-07-25T01:37:37.504Z,100020.44
2022-07-25T01:40:05.610Z,100021.56
2022-07-25T01:42:32.585Z,100014.84
2022-07-25T01:44:59.419Z,100019.66
2022-07-25T01:47:26.214Z,100017.25
2022-07-25T01:49:52.866Z,100014.34
2022-07-25T01:52:19.457Z,99989.22
2022-07-25T01:54:46.026Z,100011.16
2022-07-25T01:57:15.180Z,100007.34
2022-07-25T01:59:43.551Z,100012.19
2022-07-25T02:02:10.825Z,99986.34
2022-07-25T02:04:37.645Z,100005.03
2022-07-25T02:07:06.154Z,100009.13
2022-07-25T02:09:33.071Z,100008.94
2022-07-25T02:11:59.692Z,100004.41
2022-07-25T02:14:26.294Z,100013.66
2022-07-25T02:16:52.953Z,100009.13
2022-07-25T02:19:19.545Z,100004.88
2022-07-25T02:21:46.145Z,99981.69
2022-07-25T02:24:12.759Z,99974.06
2022-07-25T02:26:39.278Z,99977.59
2022-07-25T02:29:05.832Z,99984.25
2022-07-25T02:31:32.420Z,99983.81
2022-07-25T02:33:59.075Z,99985.97
2022-07-25T02:36:25.607Z,99973.53
2022-07-25T02:38:52.137Z,99964.22
2022-07-25T02:41:18.695Z,99961.97
2022-07-25T02:43:45.273Z,99964.41
2022-07-25T02:46:11.962Z,99940.94
2022-07-25T02:48:38.660Z,99960.63
2022-07-25T02:51:05.540Z,99956.25
2022-07-25T02:53:54.769Z,99952.69
2022-07-25T02:56:18.718Z,99956.66
2022-07-25T02:58:47.996Z,99931.50
2022-07-25T03:01:14.769Z,99949.72
2022-07-25T03:03:41.632Z,99948.25
2022-07-25T03:06:08.394Z,99953.94
2022-07-25T03:08:35.041Z,99954.50
2022-07-25T03:11:01.689Z,99949.09
2022-07-25T03:13:28.412Z,99949.81
2022-07-25T03:15:55.927Z,99951.94
2022-07-25T03:18:22.558Z,99947.63
2022-07-25T03:20:49.207Z,99941.53
2022-07-25T03:23:15.741Z,99936.47
2022-07-25T03:25:42.288Z,99937.06
2022-07-25T03:28:08.893Z,99942.72
2022-07-25T03:30:35.661Z,99933.16
2022-07-25T03:33:02.305Z,99923.56
2022-07-25T03:35:28.981Z,99935.84
2022-07-25T03:37:55.640Z,99921.00
2022-07-25T03:40:22.717Z,99928.06
2022-07-25T03:42:49.302Z,99928.34
2022-07-25T03:45:16.844Z,99916.50
2022-07-25T03:47:43.526Z,99921.56
2022-07-25T03:50:10.785Z,99891.88
2022-07-25T03:52:38.494Z,99910.78
2022-07-25T03:55:09.861Z,99911.94
2022-07-25T03:57:36.877Z,99909.94
2022-07-25T04:00:05.672Z,99910.78
2022-07-25T04:02:32.530Z,99912.06
2022-07-25T04:04:59.124Z,99914.75
2022-07-25T04:07:25.823Z,99922.09
2022-07-25T04:09:52.379Z,99908.94
2022-07-25T04:12:19.053Z,99909.78
2022-07-25T04:14:45.697Z,99902.00
2022-07-25T04:17:12.503Z,99909.38
2022-07-25T04:19:39.530Z,99905.41
2022-07-25T04:22:06.330Z,99910.97
2022-07-25T04:24:32.990Z,99906.16
2022-07-25T04:26:59.571Z,99910.00
2022-07-25T04:29:26.193Z,99907.41
2022-07-25T04:31:52.809Z,99892.47
2022-07-25T04:34:19.537Z,99902.03
2022-07-25T04:36:46.130Z,99898.13
2022-07-25T04:39:12.695Z,99897.13
2022-07-25T04:41:39.284Z,99909.41
2022-07-25T04:44:07.689Z,99892.03
2022-07-25T04:46:34.772Z,99901.66
2022-07-25T04:49:01.548Z,99881.25
2022-07-25T04:51:28.298Z,99898.75
2022-07-25T04:53:54.845Z,99890.47
2022-07-25T04:56:21.438Z,99888.28
2022-07-25T04:58:48.073Z,99886.88
2022-07-25T05:01:14.995Z,99894.03
2022-07-25T05:03:41.832Z,99901.81
2022-07-25T05:06:17.438Z,99901.53
2022-07-25T05:08:44.172Z,99883.47
2022-07-25T05:11:10.778Z,99873.06
2022-07-25T05:13:37.416Z,99891.97
2022-07-25T05:16:04.319Z,99897.31
2022-07-25T05:18:31.066Z,99898.53
2022-07-25T05:20:57.677Z,99894.97
2022-07-25T05:23:24.243Z,99891.34
2022-07-25T05:25:51.164Z,99865.41
2022-07-25T05:28:17.881Z,99883.16
2022-07-25T05:30:44.543Z,99878.84
2022-07-25T05:33:11.087Z,99875.69
2022-07-25T05:35:37.791Z,99859.53
2022-07-25T05:38:04.758Z,99866.75
2022-07-25T05:40:31.325Z,99863.13
2022-07-25T05:43:02.751Z,99864.59
2022-07-25T05:45:30.204Z,99868.03
2022-07-25T05:47:56.759Z,99865.78
2022-07-25T05:50:23.483Z,99867.34
2022-07-25T05:52:50.192Z,99855.09
2022-07-25T05:55:17.643Z,99866.44
2022-07-25T05:57:44.563Z,99854.50
2022-07-25T06:00:12.040Z,99858.59
2022-07-25T06:02:38.856Z,99869.97
2022-07-25T06:05:05.700Z,99850.56
2022-07-25T06:07:32.265Z,99833.72
2022-07-25T06:09:58.882Z,99846.63
2022-07-25T06:12:25.598Z,99858.31
2022-07-25T06:14:52.403Z,99850.75
2022-07-25T06:17:19.084Z,99858.06
2022-07-25T06:19:46.083Z,99850.81
2022-07-25T06:22:14.545Z,99860.28
2022-07-25T06:24:41.512Z,99841.84
2022-07-25T06:27:08.681Z,99853.31
2022-07-25T06:29:35.439Z,99852.63
2022-07-25T06:32:02.132Z,99838.81
2022-07-25T06:34:29.079Z,99834.13
2022-07-25T06:36:57.415Z,99847.44
2022-07-25T06:39:25.167Z,99844.06
2022-07-25T06:41:52.064Z,99845.31
2022-07-25T06:44:18.609Z,99849.09
2022-07-25T06:46:46.302Z,99835.47
2022-07-25T06:49:12.945Z,99829.16
2022-07-25T06:51:39.578Z,99838.63
2022-07-25T06:54:07.479Z,99836.63
2022-07-25T06:56:34.733Z,99837.69
2022-07-25T06:59:01.439Z,99839.03
2022-07-25T07:01:28.193Z,99830.34
2022-07-25T07:03:55.032Z,99837.25
2022-07-25T07:06:21.701Z,99832.75
2022-07-25T07:08:48.363Z,99826.69
2022-07-25T07:11:16.689Z,99825.47
2022-07-25T07:13:43.327Z,99830.78
2022-07-25T07:16:10.235Z,99815.09
2022-07-25T07:18:37.393Z,99809.38
2022-07-25T07:21:05.581Z,99807.41
2022-07-25T07:23:32.900Z,99800.34
2022-07-25T07:26:00.004Z,99822.84
2022-07-25T07:28:26.705Z,99827.63
2022-07-25T07:33:40.095Z,99825.13
2022-07-25T07:36:07.080Z,99820.50
2022-07-25T07:38:33.792Z,99820.69
2022-07-25T07:41:00.344Z,99820.31
2022-07-25T07:43:30.115Z,99799.50
2022-07-25T07:46:02.893Z,99811.19
2022-07-25T07:48:31.275Z,99811.31
2022-07-25T07:50:59.354Z,99809.72
2022-07-25T07:53:46.063Z,99815.19
2022-07-25T07:56:13.244Z,99818.66
2022-07-25T07:58:40.212Z,99827.59
2022-07-25T08:01:07.488Z,99823.69
2022-07-25T08:03:34.272Z,99821.06
2022-07-25T08:06:00.842Z,99824.13
2022-07-25T08:08:31.178Z,99817.94
2022-07-25T08:10:59.276Z,99807.72
2022-07-25T08:13:28.873Z,99829.31
2022-07-25T08:15:59.037Z,99826.31
2022-07-25T08:18:27.632Z,99821.06
2022-07-25T08:20:54.587Z,99827.06
2022-07-25T08:23:22.383Z,99812.00
2022-07-25T08:25:49.411Z,99818.47
2022-07-25T08:28:16.110Z,99813.34
2022-07-25T08:30:43.446Z,99813.91
2022-07-25T08:33:13.547Z,99812.31
2022-07-25T08:35:42.043Z,99796.88
2022-07-25T08:38:11.673Z,99785.47
2022-07-25T08:40:38.557Z,99806.75
2022-07-25T08:43:05.253Z,99785.34
2022-07-25T08:45:33.442Z,99805.34
2022-07-25T08:47:59.999Z,99809.53
2022-07-25T08:50:28.982Z,99803.59
2022-07-25T08:53:29.883Z,99780.47
2022-07-25T08:55:46.738Z,99794.00
2022-07-25T08:58:15.393Z,99787.13
2022-07-25T09:00:42.726Z,99785.19
2022-07-25T09:03:09.798Z,99790.22
2022-07-25T09:05:37.458Z,99788.16
2022-07-25T09:08:22.189Z,99777.22
2022-07-25T09:10:53.037Z,99770.59
2022-07-25T09:13:22.229Z,99779.91
2022-07-25T09:15:54.214Z,99763.16
2022-07-25T09:18:25.462Z,99773.09
2022-07-25T09:20:53.911Z,99768.81
2022-07-25T09:23:34.108Z,99773.09
2022-07-25T09:26:10.099Z,99757.63
2022-07-25T09:28:42.491Z,99770.78
2022-07-25T09:31:09.903Z,99761.88
2022-07-25T09:33:49.097Z,99755.22
2022-07-25T09:36:16.236Z,99761.13
2022-07-25T09:38:56.960Z,99743.66
2022-07-25T09:41:37.005Z,99753.09
2022-07-25T09:44:05.139Z,99748.69
2022-07-25T09:46:32.607Z,99746.00
2022-07-25T09:49:00.418Z,99742.63
2022-07-25T09:51:28.010Z,99735.50
2022-07-25T09:53:54.925Z,99733.72
2022-07-25T09:56:21.494Z,99733.50
2022-07-25T09:58:48.095Z,99728.97
2022-07-25T10:01:20.687Z,99705.72
2022-07-25T10:03:51.928Z,99726.63
2022-07-25T10:06:28.171Z,99731.25
2022-07-25T10:08:55.090Z,99724.06
2022-07-25T10:11:26.979Z,99712.38
2022-07-25T10:13:54.790Z,99713.16
2022-07-25T10:16:24.092Z,99694.22
2022-07-25T10:18:52.951Z,99706.63
2022-07-25T10:21:26.676Z,99726.97
2022-07-25T10:23:58.740Z,99719.91
2022-07-25T10:26:25.720Z,99719.88
2022-07-25T10:28:54.356Z,99709.44
2022-07-25T10:31:23.079Z,99703.31
2022-07-25T10:33:55.452Z,99695.78
2022-07-25T10:36:23.181Z,99697.69
2022-07-25T10:38:57.310Z,99700.41
2022-07-25T10:41:26.405Z,99689.41
2022-07-25T10:43:57.402Z,99675.22
2022-07-25T10:46:27.994Z,99690.47
2022-07-25T10:49:03.341Z,99684.72
2022-07-25T10:51:38.312Z,99687.31
2022-07-25T10:54:15.841Z,99673.28
2022-07-25T10:56:59.053Z,99669.06
2022-07-25T10:59:38.287Z,99648.41
2022-07-25T11:02:07.373Z,99669.31
2022-07-25T11:04:34.638Z,99668.34
2022-07-25T11:07:16.279Z,99665.59
2022-07-25T11:09:44.483Z,99667.88
2022-07-25T11:12:15.372Z,99654.16
2022-07-25T11:14:42.921Z,99657.84
2022-07-25T11:17:39.077Z,99655.56
2022-07-25T11:20:08.102Z,99655.44
2022-07-25T11:22:35.771Z,99625.13
2022-07-25T11:25:11.986Z,99644.13
2022-07-25T11:27:38.597Z,99641.34
2022-07-25T11:30:16.521Z,99645.72
2022-07-25T11:32:52.122Z,99648.78
2022-07-25T11:35:22.886Z,99628.22
2022-07-25T11:37:50.928Z,99638.63
2022-07-25T11:40:18.633Z,99604.25
2022-07-25T11:42:48.756Z,99633.41
2022-07-25T11:45:26.842Z,99639.72
2022-07-25T11:48:13.539Z,99606.00
2022-07-25T11:50:44.439Z,99624.91
2022-07-25T11:53:17.195Z,99626.06
2022-07-25T11:55:44.084Z,99631.09
2022-07-25T11:58:13.068Z,99634.38
2022-07-25T12:00:43.235Z,99629.13
2022-07-25T12:03:21.063Z,99631.63
2022-07-25T12:05:49.208Z,99614.22
2022-07-25T12:08:18.696Z,99625.41
2022-07-25T12:10:48.715Z,99622.00
2022-07-25T12:13:26.338Z,99624.16
2022-07-25T12:15:53.578Z,99626.22
2022-07-25T12:18:20.230Z,99629.75
2022-07-25T12:20:47.156Z,99605.94
2022-07-25T12:23:14.614Z,99617.38
2022-07-25T12:25:44.253Z,99619.59
2022-07-25T12:28:11.398Z,99612.59
2022-07-25T12:30:39.541Z,99616.31
2022-07-25T12:33:06.642Z,99616.06
2022-07-25T12:35:33.556Z,99595.59
2022-07-25T12:38:00.372Z,99612.41
2022-07-25T12:40:27.071Z,99611.22
2022-07-25T12:42:53.806Z,99602.94
2022-07-25T12:45:20.366Z,99604.63
2022-07-25T12:47:48.222Z,99609.84
2022-07-25T12:50:16.639Z,99604.28
2022-07-25T12:52:44.159Z,99603.59
2022-07-25T12:55:16.927Z,99594.91
2022-07-25T12:57:44.517Z,99600.50
2022-07-25T13:00:15.711Z,99597.50
2022-07-25T13:02:43.159Z,99564.84
2022-07-25T13:05:11.002Z,99586.47
2022-07-25T13:07:38.720Z,99581.78
2022-07-25T13:10:07.741Z,99584.81
2022-07-25T13:12:35.317Z,99591.63
2022-07-25T13:15:03.000Z,99580.25
2022-07-25T13:17:30.132Z,99575.22
2022-07-25T13:19:56.907Z,99572.47
2022-07-25T13:22:24.929Z,99569.72
2022-07-25T13:24:53.151Z,99569.59
2022-07-25T13:27:21.084Z,99572.16
2022-07-25T13:29:47.737Z,99585.44
2022-07-25T13:32:14.413Z,99590.88
2022-07-25T13:34:41.083Z,99599.78
2022-07-25T13:37:07.829Z,99597.81
2022-07-25T13:39:35.788Z,99617.16
2022-07-25T13:42:03.448Z,99618.84
2022-07-25T13:44:30.085Z,99604.09
2022-07-25T13:46:58.566Z,99612.28
2022-07-25T13:49:25.998Z,99606.19
2022-07-25T13:51:52.670Z,99609.16
2022-07-25T13:54:19.318Z,99601.72
2022-07-25T13:56:46.752Z,99591.72
2022-07-25T13:59:20.550Z,99592.75
2022-07-25T14:01:49.566Z,99588.09
2022-07-25T14:04:16.745Z,99582.34
2022-07-25T14:06:43.411Z,99589.09
2022-07-25T14:09:10.470Z,99563.41
2022-07-25T14:11:37.546Z,99575.28
2022-07-25T14:14:04.191Z,99591.06
2022-07-25T14:16:31.026Z,99582.13
2022-07-25T14:18:57.754Z,99576.41
2022-07-25T14:21:25.420Z,99572.84
2022-07-25T14:23:52.484Z,99568.34
2022-07-25T14:26:19.556Z,99569.25
2022-07-25T14:28:46.336Z,99565.88
2022-07-25T14:31:13.097Z,99563.53
2022-07-25T14:33:40.708Z,99557.69
2022-07-25T14:36:09.697Z,99546.09
2022-07-25T14:38:36.634Z,99547.03
2022-07-25T14:41:05.712Z,99547.13
2022-07-25T14:43:35.677Z,99560.19
2022-07-25T14:46:02.230Z,99549.81
2022-07-25T14:48:28.966Z,99553.41
2022-07-25T14:50:55.758Z,99547.34
2022-07-25T14:53:22.368Z,99549.69
2022-07-25T14:55:48.969Z,99550.94
2022-07-25T14:58:15.791Z,99545.56
2022-07-25T15:00:43.592Z,99552.34
2022-07-25T15:03:10.222Z,99545.41
2022-07-25T15:05:38.584Z,99528.13
2022-07-25T15:08:06.277Z,99538.88
2022-07-25T15:10:33.056Z,99538.75
2022-07-25T15:13:28.239Z,99543.41
2022-07-25T15:15:46.915Z,99527.28
2022-07-25T15:18:14.979Z,99535.41
2022-07-25T15:20:41.913Z,99530.38
2022-07-25T15:23:08.572Z,99533.25
2022-07-25T15:26:00.474Z,99528.50
2022-07-25T15:28:21.942Z,99517.88
2022-07-25T15:30:48.587Z,99526.47
2022-07-25T15:33:15.493Z,99517.16
2022-07-25T15:35:44.068Z,99501.19
2022-07-25T15:38:10.929Z,99523.72
2022-07-25T15:40:37.725Z,99504.28
2022-07-25T15:43:04.489Z,99511.41
2022-07-25T15:45:33.002Z,99514.59
2022-07-25T15:48:01.526Z,99511.13
2022-07-25T15:50:28.189Z,99515.28
2022-07-25T15:52:54.873Z,99519.47
2022-07-25T15:55:21.543Z,99492.59
2022-07-25T15:57:48.199Z,99491.88
2022-07-25T16:00:15.149Z,99526.28
2022-07-25T16:02:41.713Z,99516.97
2022-07-25T16:05:08.836Z,99515.94
2022-07-25T16:07:35.793Z,99514.91
2022-07-25T16:10:03.026Z,99522.88
2022-07-25T16:12:30.043Z,99517.63
2022-07-25T16:14:56.747Z,99527.41
2022-07-25T16:17:25.957Z,99536.00
2022-07-25T16:19:54.078Z,99524.53
2022-07-25T16:22:22.012Z,99529.91
2022-07-25T16:24:49.229Z,99528.84
2022-07-25T16:27:16.208Z,99532.13
2022-07-25T16:29:43.059Z,99541.88
2022-07-25T16:32:10.879Z,99546.06
2022-07-25T16:34:37.610Z,99549.09
2022-07-25T16:37:05.045Z,99540.75
2022-07-25T16:39:31.992Z,99544.19
2022-07-25T16:41:58.808Z,99544.66
2022-07-25T16:44:25.552Z,99549.19
2022-07-25T16:46:53.100Z,99545.84
2022-07-25T16:49:19.926Z,99553.84
2022-07-25T16:51:46.782Z,99569.94
2022-07-25T16:54:13.839Z,99562.59
2022-07-25T16:56:40.929Z,99565.97
2022-07-25T16:59:08.872Z,99551.84
2022-07-25T17:01:35.817Z,99583.28
2022-07-25T17:04:03.333Z,99584.81
2022-07-25T17:06:30.235Z,99593.75
2022-07-25T17:08:56.947Z,99583.81
2022-07-25T17:11:23.619Z,99606.22
2022-07-25T17:13:50.559Z,99602.63
2022-07-25T17:16:17.496Z,99614.41
2022-07-25T17:18:44.222Z,99620.56
2022-07-25T17:21:10.996Z,99617.31
2022-07-25T17:23:38.101Z,99623.06
2022-07-25T17:26:05.490Z,99634.88
2022-07-25T17:28:32.525Z,99624.41
2022-07-25T17:30:59.386Z,99640.38
2022-07-25T17:33:26.675Z,99630.72
2022-07-25T17:35:53.549Z,99647.72
2022-07-25T17:38:25.425Z,99659.72
2022-07-25T17:40:53.109Z,99653.88
2022-07-25T17:43:19.788Z,99646.75
2022-07-25T17:45:46.453Z,99650.09
2022-07-25T17:48:13.051Z,99662.69
2022-07-25T17:50:39.692Z,99669.59
2022-07-25T17:53:06.519Z,99672.53
2022-07-25T17:55:38.175Z,99684.50
2022-07-25T17:58:05.546Z,99679.22
2022-07-25T18:00:32.486Z,99682.34
2022-07-25T18:02:59.228Z,99678.50
2022-07-25T18:05:26.044Z,99699.50
2022-07-25T18:07:53.684Z,99697.09
2022-07-25T18:10:21.885Z,99712.59
2022-07-25T18:12:49.452Z,99721.13
2022-07-25T18:15:16.324Z,99724.00
2022-07-25T18:17:44.853Z,99704.84
2022-07-25T18:20:13.124Z,99737.50
2022-07-25T18:22:41.233Z,99737.03
2022-07-25T18:25:11.057Z,99749.78
2022-07-25T18:27:40.756Z,99751.34
2022-07-25T18:30:08.155Z,99757.72
2022-07-25T18:32:35.653Z,99763.28
2022-07-25T18:35:02.304Z,99769.00
2022-07-25T18:37:29.084Z,99778.91
2022-07-25T18:39:55.697Z,99762.31
2022-07-25T18:42:26.316Z,99789.94
2022-07-25T18:44:56.515Z,99767.50
2022-07-25T18:47:25.595Z,99775.09
2022-07-25T18:49:55.002Z,99802.06
2022-07-25T18:52:22.107Z,99809.38
2022-07-25T18:54:49.129Z,99809.19
2022-07-25T18:57:16.136Z,99814.38
2022-07-25T18:59:43.377Z,99813.47
2022-07-25T19:02:10.605Z,99805.66
2022-07-25T19:04:37.805Z,99818.59
2022-07-25T19:07:05.102Z,99830.97
2022-07-25T19:09:32.280Z,99827.50
2022-07-25T19:12:01.691Z,99836.00
2022-07-25T19:14:30.941Z,99839.16
2022-07-25T19:16:59.446Z,99834.28
2022-07-25T19:19:27.030Z,99847.72
2022-07-25T19:21:54.032Z,99862.13
2022-07-25T19:24:21.161Z,99856.38
2022-07-25T19:26:49.064Z,99874.81
2022-07-25T19:29:16.644Z,99870.47
2022-07-25T19:31:43.585Z,99888.25
2022-07-25T19:34:10.869Z,99884.94
2022-07-25T19:36:37.939Z,99900.38
2022-07-25T19:39:06.128Z,99891.44
2022-07-25T19:41:33.005Z,99900.09
2022-07-25T19:43:59.598Z,99892.06
2022-07-25T19:46:30.438Z,99891.78
2022-07-25T19:48:57.043Z,99904.66
2022-07-25T19:51:23.679Z,99912.94
2022-07-25T19:53:50.266Z,99917.56
2022-07-25T19:56:16.917Z,99912.50
2022-07-25T19:58:45.087Z,99920.78
2022-07-25T20:01:12.930Z,99931.50
2022-07-25T20:03:40.314Z,99927.94
2022-07-25T20:06:08.465Z,99924.78
2022-07-25T20:08:36.661Z,99920.03
2022-07-25T20:11:03.649Z,99900.81
2022-07-25T20:13:30.333Z,99897.25
2022-07-25T20:15:57.364Z,99906.34
2022-07-25T20:18:24.201Z,99919.19
2022-07-25T20:20:51.086Z,99920.56
2022-07-25T20:23:17.895Z,99930.56
2022-07-25T20:25:44.553Z,99933.78
2022-07-25T20:28:11.455Z,99946.47
2022-07-25T20:30:38.520Z,99944.81
2022-07-25T20:33:09.345Z,99952.91
2022-07-25T20:35:37.994Z,99941.41
2022-07-25T20:38:10.035Z,99962.38
2022-07-25T20:40:48.019Z,99962.72
2022-07-25T20:43:16.177Z,99966.94
2022-07-25T20:45:43.217Z,99971.69
2022-07-25T20:48:09.849Z,99983.69
2022-07-25T20:50:37.752Z,99981.31
2022-07-25T20:53:08.220Z,99992.16
2022-07-25T20:55:35.906Z,99993.19
2022-07-25T20:58:03.809Z,100002.81
2022-07-25T21:00:31.026Z,99993.50
2022-07-25T21:02:58.664Z,100000.47
2022-07-25T21:05:26.243Z,100015.50
2022-07-25T21:07:53.073Z,100025.66
2022-07-25T21:10:19.825Z,100027.81
2022-07-25T21:12:46.505Z,100014.78
2022-07-25T21:15:13.249Z,100028.38
2022-07-25T21:17:40.254Z,100020.56
2022-07-25T21:20:09.201Z,100044.75
2022-07-25T21:22:36.008Z,100041.91
2022-07-25T21:25:03.394Z,100043.88
2022-07-25T21:27:30.393Z,100035.59
2022-07-25T21:29:57.072Z,100031.19
2022-07-25T21:32:23.757Z,100045.22
2022-07-25T21:34:51.884Z,100036.09
2022-07-25T21:37:18.671Z,100015.97
2022-07-25T21:39:45.926Z,100051.00
2022-07-25T21:42:12.829Z,100029.50
2022-07-25T21:44:40.755Z,100056.22
2022-07-25T21:47:08.285Z,100053.81
2022-07-25T21:50:10.532Z,100069.88
2022-07-25T21:52:39.851Z,100073.91
2022-07-25T21:55:06.633Z,100064.63
2022-07-25T21:57:33.226Z,100053.25
2022-07-25T21:59:59.834Z,100073.06
2022-07-25T22:02:26.594Z,100070.84
2022-07-25T22:04:53.298Z,100071.53
2022-07-25T22:07:19.989Z,100064.53
2022-07-25T22:09:46.634Z,100076.72
2022-07-25T22:12:14.780Z,100075.88
2022-07-25T22:14:41.461Z,100086.84
2022-07-25T22:17:08.431Z,100088.72
2022-07-25T22:19:35.156Z,100071.13
2022-07-25T22:22:01.855Z,100078.91
2022-07-25T22:24:28.373Z,100084.16
2022-07-25T22:26:55.941Z,100080.44
2022-07-25T22:29:22.572Z,100087.00
2022-07-25T22:31:49.178Z,100090.41
2022-07-25T22:34:16.047Z,100082.47
2022-07-25T22:36:42.974Z,100090.56
2022-07-25T22:39:11.085Z,100089.03
2022-07-25T22:41:38.091Z,100085.47
2022-07-25T22:44:05.037Z,100091.09
2022-07-25T22:46:31.841Z,100080.81
2022-07-25T22:48:59.245Z,100073.91
2022-07-25T22:51:26.750Z,100088.94
2022-07-25T22:53:53.723Z,100097.16
2022-07-25T22:56:20.999Z,100099.88
2022-07-25T22:58:49.039Z,100097.66
2022-07-25T23:01:16.087Z,100094.94
2022-07-25T23:03:42.739Z,100096.09
2022-07-25T23:06:09.638Z,100093.53
2022-07-25T23:08:36.276Z,100098.78
2022-07-25T23:11:03.702Z,100089.09
2022-07-25T23:13:30.638Z,100101.91
2022-07-25T23:15:57.326Z,100099.16
2022-07-25T23:18:24.047Z,100106.56
2022-07-25T23:20:50.624Z,100120.06
2022-07-25T23:23:17.393Z,100106.38
2022-07-25T23:25:44.094Z,100118.00
2022-07-25T23:28:10.817Z,100117.09
2022-07-25T23:30:40.414Z,100117.75
2022-07-25T23:33:09.579Z,100127.53
2022-07-25T23:35:37.198Z,100124.41
2022-07-25T23:38:03.975Z,100128.25
2022-07-25T23:40:30.705Z,100133.81
2022-07-25T23:42:57.425Z,100129.91
2022-07-25T23:45:25.009Z,100125.06
2022-07-25T23:47:55.085Z,100120.13
2022-07-25T23:50:22.610Z,100134.75
2022-07-25T23:52:49.354Z,100136.75
2022-07-25T23:55:16.013Z,100114.31
2022-07-25T23:57:43.206Z,100120.97
